createdAt,value
2017-09-17T00:00:18.347Z,99.80
2017-09-17T00:02:46.678Z,99.80
2017-09-17T00:05:14.263Z,99.70
2017-09-17T00:07:41.846Z,99.80
2017-09-17T00:10:09.405Z,99.40
2017-09-17T00:12:36.983Z,99.50
2017-09-17T00:15:04.547Z,99.40
2017-09-17T00:17:32.534Z,99.30
2017-09-17T00:20:00.079Z,99.30
2017-09-17T00:22:28.562Z,99.40
2017-09-17T00:24:56.192Z,99.50
2017-09-17T00:27:23.776Z,99.50
2017-09-17T00:29:51.355Z,99.40
2017-09-17T00:32:18.911Z,99.30
2017-09-17T00:34:46.499Z,99.50
2017-09-17T00:37:14.079Z,99.60
2017-09-17T00:39:42.478Z,99.70
2017-09-17T00:42:10.063Z,99.70
2017-09-17T00:44:37.634Z,99.80
2017-09-17T00:47:05.202Z,99.80
2017-09-17T00:49:32.792Z,99.90
2017-09-17T00:52:01.142Z,99.90
2017-09-17T00:54:29.017Z,99.90
2017-09-17T00:56:56.596Z,99.90
2017-09-17T00:59:24.935Z,99.90
2017-09-17T01:01:52.521Z,99.90
2017-09-17T01:04:20.867Z,99.90
2017-09-17T01:06:48.447Z,99.80
2017-09-17T01:09:16.038Z,99.90
2017-09-17T01:11:43.956Z,99.90
2017-09-17T01:14:13.028Z,99.90
2017-09-17T01:16:40.601Z,99.90
2017-09-17T01:19:08.176Z,99.90
2017-09-17T01:21:35.724Z,99.90
2017-09-17T01:24:03.291Z,99.80
2017-09-17T01:26:30.860Z,99.90
2017-09-17T01:28:58.420Z,99.80
2017-09-17T01:31:25.979Z,99.90
2017-09-17T01:33:53.592Z,99.90
2017-09-17T01:36:21.157Z,99.90
2017-09-17T01:38:49.047Z,99.90
2017-09-17T01:41:16.640Z,99.80
2017-09-17T01:43:45.004Z,99.90
2017-09-17T01:46:12.608Z,99.90
2017-09-17T01:48:40.164Z,99.90
2017-09-17T01:51:07.768Z,99.80
2017-09-17T01:53:35.329Z,99.60
2017-09-17T01:56:02.917Z,99.80
2017-09-17T01:58:31.253Z,99.80
2017-09-17T02:00:59.109Z,99.70
2017-09-17T02:03:26.669Z,99.70
2017-09-17T02:05:54.255Z,99.70
2017-09-17T02:08:21.853Z,99.70
2017-09-17T02:10:49.429Z,99.80
2017-09-17T02:13:17.008Z,99.70
2017-09-17T02:15:44.582Z,99.70
2017-09-17T02:18:12.434Z,99.60
2017-09-17T02:20:40.018Z,99.70
2017-09-17T02:23:07.575Z,99.80
2017-09-17T02:25:35.160Z,99.60
2017-09-17T02:28:03.498Z,99.60
2017-09-17T02:30:31.072Z,99.60
2017-09-17T02:32:58.628Z,99.70
2017-09-17T02:35:26.225Z,99.70
2017-09-17T02:37:53.809Z,99.60
2017-09-17T02:40:21.400Z,99.60
2017-09-17T02:42:48.973Z,99.70
2017-09-17T02:45:16.921Z,99.70
2017-09-17T02:47:44.505Z,99.90
2017-09-17T02:50:12.849Z,99.90
2017-09-17T02:52:40.420Z,99.90
2017-09-17T02:55:08.001Z,99.90
2017-09-17T02:57:36.330Z,99.90
2017-09-17T03:00:03.922Z,99.90
2017-09-17T03:02:31.496Z,99.90
2017-09-17T03:04:59.831Z,99.90
2017-09-17T03:07:27.441Z,99.90
2017-09-17T03:09:55.757Z,99.90
2017-09-17T03:12:23.346Z,99.90
2017-09-17T03:14:50.911Z,99.90
2017-09-17T03:17:18.879Z,99.90
2017-09-17T03:19:46.455Z,99.90
2017-09-17T03:22:14.796Z,99.90
2017-09-17T03:24:42.392Z,99.90
2017-09-17T03:27:10.737Z,99.90
2017-09-17T03:29:38.324Z,99.90
2017-09-17T03:32:06.662Z,99.90
2017-09-17T03:34:34.238Z,99.90
2017-09-17T03:37:01.811Z,99.90
2017-09-17T03:39:29.714Z,99.90
2017-09-17T03:41:57.287Z,99.90
2017-09-17T03:44:24.937Z,99.90
2017-09-17T03:46:52.509Z,99.90
2017-09-17T03:49:20.069Z,99.90
2017-09-17T03:51:47.654Z,99.90
2017-09-17T03:54:15.217Z,99.90
2017-09-17T03:56:42.794Z,99.90
2017-09-17T03:59:10.360Z,99.90
2017-09-17T04:01:38.976Z,99.90
2017-09-17T04:04:06.542Z,99.90
2017-09-17T04:06:34.105Z,99.90
2017-09-17T04:09:01.683Z,99.90
2017-09-17T04:11:29.247Z,99.90
2017-09-17T04:13:56.831Z,99.90
2017-09-17T04:16:25.173Z,99.90
2017-09-17T04:18:52.759Z,99.90
2017-09-17T04:21:30.782Z,99.90
2017-09-17T04:23:59.118Z,99.90
2017-09-17T04:26:26.695Z,99.90
2017-09-17T04:28:54.546Z,99.90
2017-09-17T04:31:22.115Z,99.90
2017-09-17T04:33:49.666Z,99.90
2017-09-17T04:36:17.257Z,99.90
2017-09-17T04:38:44.823Z,99.90
2017-09-17T04:41:13.242Z,99.90
2017-09-17T04:43:40.803Z,99.90
2017-09-17T04:46:08.376Z,99.90
2017-09-17T04:48:35.953Z,99.90
2017-09-17T04:51:03.556Z,99.90
2017-09-17T04:53:31.232Z,99.90
2017-09-17T04:55:59.061Z,99.90
2017-09-17T04:58:27.378Z,99.90
2017-09-17T05:00:54.951Z,99.90
2017-09-17T05:03:22.543Z,99.90
2017-09-17T05:05:50.157Z,99.90
2017-09-17T05:08:17.733Z,99.90
2017-09-17T05:10:46.070Z,99.90
2017-09-17T05:13:13.654Z,99.90
2017-09-17T05:15:41.213Z,99.90
2017-09-17T05:18:08.780Z,99.90
2017-09-17T05:20:36.353Z,99.90
2017-09-17T05:23:04.217Z,99.90
2017-09-17T05:25:31.780Z,99.90
2017-09-17T05:27:59.359Z,99.90
2017-09-17T05:30:26.940Z,99.90
2017-09-17T05:32:55.280Z,99.90
2017-09-17T05:35:22.855Z,99.90
2017-09-17T05:37:50.424Z,99.90
2017-09-17T05:40:18.770Z,99.90
2017-09-17T05:42:46.325Z,99.90
2017-09-17T05:45:13.898Z,99.90
2017-09-17T05:47:41.458Z,99.90
2017-09-17T05:50:09.406Z,99.90
2017-09-17T05:52:36.975Z,99.90
2017-09-17T05:55:04.531Z,99.90
2017-09-17T05:57:32.133Z,99.90
2017-09-17T06:00:00.452Z,99.90
2017-09-17T06:02:28.035Z,99.90
2017-09-17T06:04:55.603Z,99.90
2017-09-17T06:07:23.171Z,99.90
2017-09-17T06:09:50.744Z,99.90
2017-09-17T06:12:19.350Z,99.90
2017-09-17T06:14:46.917Z,99.90
2017-09-17T06:17:14.490Z,99.90
2017-09-17T06:19:42.071Z,99.90
2017-09-17T06:22:09.662Z,99.90
2017-09-17T06:24:38.017Z,99.90
2017-09-17T06:27:05.586Z,99.90
2017-09-17T06:29:33.924Z,99.90
2017-09-17T06:32:01.513Z,99.90
2017-09-17T06:34:29.374Z,99.90
2017-09-17T06:36:56.960Z,99.90
2017-09-17T06:39:25.313Z,99.90
2017-09-17T06:41:52.897Z,99.90
2017-09-17T06:44:21.226Z,99.90
2017-09-17T06:46:48.815Z,99.90
2017-09-17T06:49:16.378Z,99.90
2017-09-17T06:51:44.729Z,99.90
2017-09-17T06:54:12.315Z,99.90
2017-09-17T06:56:40.928Z,99.90
2017-09-17T06:59:08.503Z,99.90
2017-09-17T07:01:36.077Z,99.90
2017-09-17T07:04:03.649Z,99.90
2017-09-17T07:06:31.234Z,99.90
2017-09-17T07:08:58.824Z,99.90
2017-09-17T07:11:26.430Z,99.90
2017-09-17T07:13:55.010Z,99.90
2017-09-17T07:16:22.594Z,99.90
2017-09-17T07:18:50.478Z,99.90
2017-09-17T07:21:18.824Z,99.90
2017-09-17T07:23:46.425Z,99.90
2017-09-17T07:26:14.040Z,99.90
2017-09-17T07:28:41.631Z,99.70
2017-09-17T07:31:09.973Z,99.40
2017-09-17T07:33:37.555Z,99.40
2017-09-17T07:36:05.913Z,99.20
2017-09-17T07:38:33.877Z,99.20
2017-09-17T07:41:01.441Z,99.10
2017-09-17T07:43:29.013Z,99.00
2017-09-17T07:45:57.373Z,99.10
2017-09-17T07:48:25.077Z,99.10
2017-09-17T07:50:52.690Z,99.10
2017-09-17T07:53:20.290Z,99.20
2017-09-17T07:55:48.659Z,99.60
2017-09-17T07:58:17.038Z,99.30
2017-09-17T08:00:45.694Z,99.30
2017-09-17T08:03:13.294Z,99.20
2017-09-17T08:05:40.903Z,98.80
2017-09-17T08:08:08.520Z,98.80
2017-09-17T08:10:36.168Z,98.80
2017-09-17T08:13:04.523Z,99.00
2017-09-17T08:15:32.115Z,99.00
2017-09-17T08:17:59.733Z,98.60
2017-09-17T08:20:27.331Z,98.40
2017-09-17T08:22:55.211Z,98.10
2017-09-17T08:25:22.823Z,97.70
2017-09-17T08:27:50.398Z,97.00
2017-09-17T08:30:17.989Z,96.90
2017-09-17T08:32:45.585Z,96.70
2017-09-17T08:35:13.174Z,96.50
2017-09-17T08:37:41.517Z,95.50
2017-09-17T08:40:09.899Z,95.40
2017-09-17T08:42:37.854Z,95.40
2017-09-17T08:45:05.747Z,95.20
2017-09-17T08:47:33.329Z,95.70
2017-09-17T08:50:01.665Z,94.90
2017-09-17T08:52:29.817Z,94.80
2017-09-17T08:54:57.407Z,95.20
2017-09-17T08:57:25.924Z,94.50
2017-09-17T08:59:54.286Z,94.60
2017-09-17T09:02:21.887Z,94.50
2017-09-17T09:04:49.514Z,94.20
2017-09-17T09:07:18.196Z,94.40
2017-09-17T09:09:46.582Z,93.80
2017-09-17T09:12:14.942Z,94.30
2017-09-17T09:14:42.563Z,94.20
2017-09-17T09:17:10.146Z,93.50
2017-09-17T09:19:37.722Z,94.10
2017-09-17T09:22:05.327Z,94.40
2017-09-17T09:24:33.217Z,93.90
2017-09-17T09:27:00.780Z,94.50
2017-09-17T09:29:29.154Z,93.60
2017-09-17T09:31:56.743Z,93.50
2017-09-17T09:34:24.323Z,93.60
2017-09-17T09:36:52.947Z,93.90
2017-09-17T09:39:20.539Z,93.80
2017-09-17T09:41:48.142Z,93.70
2017-09-17T09:44:16.510Z,92.90
2017-09-17T09:46:44.111Z,93.10
2017-09-17T09:49:12.027Z,93.40
2017-09-17T09:51:40.369Z,93.30
2017-09-17T09:54:08.074Z,93.30
2017-09-17T09:56:36.711Z,92.70
2017-09-17T09:59:04.678Z,92.60
2017-09-17T10:01:32.262Z,92.10
2017-09-17T10:03:59.875Z,92.30
2017-09-17T10:06:27.775Z,92.00
2017-09-17T10:08:55.342Z,91.40
2017-09-17T10:11:22.901Z,91.70
2017-09-17T10:13:57.112Z,90.20
2017-09-17T10:16:24.714Z,88.70
2017-09-17T10:18:52.568Z,88.30
2017-09-17T10:21:25.955Z,87.70
2017-09-17T10:23:57.958Z,86.30
2017-09-17T10:26:25.716Z,86.20
2017-09-17T10:28:53.381Z,83.90
2017-09-17T10:31:20.969Z,83.80
2017-09-17T10:33:48.536Z,83.00
2017-09-17T10:36:16.164Z,82.40
2017-09-17T10:38:43.727Z,82.20
2017-09-17T10:41:11.615Z,81.80
2017-09-17T10:43:39.222Z,82.40
2017-09-17T10:46:06.789Z,82.30
2017-09-17T10:48:34.408Z,82.30
2017-09-17T10:51:01.993Z,81.30
2017-09-17T10:53:31.637Z,80.70
2017-09-17T10:55:59.201Z,81.40
2017-09-17T10:58:26.856Z,79.20
2017-09-17T11:00:54.431Z,78.80
2017-09-17T11:03:22.320Z,78.80
2017-09-17T11:05:50.765Z,78.00
2017-09-17T11:08:18.343Z,78.70
2017-09-17T11:10:46.694Z,78.00
2017-09-17T11:13:14.271Z,78.00
2017-09-17T11:15:41.875Z,76.90
2017-09-17T11:18:10.230Z,72.20
2017-09-17T11:20:38.195Z,72.10
2017-09-17T11:23:05.795Z,70.30
2017-09-17T11:25:34.117Z,68.80
2017-09-17T11:28:01.712Z,68.80
2017-09-17T11:30:30.044Z,70.00
2017-09-17T11:32:57.631Z,69.20
2017-09-17T11:35:25.215Z,68.20
2017-09-17T11:37:53.068Z,66.90
2017-09-17T11:40:21.420Z,66.60
2017-09-17T11:42:48.976Z,66.60
2017-09-17T11:45:16.553Z,65.10
2017-09-17T11:47:44.152Z,64.70
2017-09-17T11:50:11.743Z,63.80
2017-09-17T11:52:39.385Z,62.10
2017-09-17T11:55:07.282Z,61.00
2017-09-17T11:57:34.858Z,59.60
2017-09-17T12:00:02.425Z,61.10
2017-09-17T12:02:30.782Z,61.50
2017-09-17T12:04:58.378Z,61.60
2017-09-17T12:07:26.733Z,57.70
2017-09-17T12:09:54.294Z,57.60
2017-09-17T12:12:22.225Z,60.00
2017-09-17T12:14:49.803Z,59.30
2017-09-17T12:17:17.389Z,59.80
2017-09-17T12:19:45.746Z,58.20
2017-09-17T12:22:13.318Z,58.20
2017-09-17T12:24:44.065Z,58.20
2017-09-17T12:27:12.411Z,59.30
2017-09-17T12:29:40.283Z,59.30
2017-09-17T12:32:07.879Z,58.80
2017-09-17T12:34:35.542Z,60.00
2017-09-17T12:37:04.245Z,59.80
2017-09-17T12:39:31.814Z,60.60
2017-09-17T12:42:00.243Z,60.10
2017-09-17T12:44:28.566Z,60.60
2017-09-17T12:46:56.174Z,60.50
2017-09-17T12:49:23.760Z,58.90
2017-09-17T12:51:51.657Z,58.80
2017-09-17T12:54:19.215Z,61.20
2017-09-17T12:56:46.793Z,58.50
2017-09-17T12:59:15.159Z,61.70
2017-09-17T13:01:42.780Z,61.60
2017-09-17T13:04:10.340Z,58.60
2017-09-17T13:06:37.925Z,56.40
2017-09-17T13:09:05.908Z,54.60
2017-09-17T13:11:33.463Z,54.60
2017-09-17T13:14:01.028Z,54.40
2017-09-17T13:16:28.618Z,54.00
2017-09-17T13:18:56.282Z,51.00
2017-09-17T13:21:23.898Z,49.60
2017-09-17T13:23:51.493Z,50.80
2017-09-17T13:26:19.093Z,51.30
2017-09-17T13:28:46.654Z,50.70
2017-09-17T13:31:14.289Z,50.50
2017-09-17T13:33:43.555Z,50.50
2017-09-17T13:36:11.570Z,50.50
2017-09-17T13:38:39.142Z,49.50
2017-09-17T13:41:06.710Z,49.30
2017-09-17T13:43:34.299Z,48.90
2017-09-17T13:46:01.890Z,49.50
2017-09-17T13:48:30.267Z,50.10
2017-09-17T13:50:58.641Z,51.10
2017-09-17T13:53:27.920Z,52.40
2017-09-17T13:55:56.322Z,51.50
2017-09-17T13:58:23.908Z,51.40
2017-09-17T14:00:51.537Z,52.80
2017-09-17T14:06:38.512Z,53.80
2017-09-17T14:09:08.731Z,54.40
2017-09-17T14:11:36.311Z,54.90
2017-09-17T14:14:04.679Z,56.90
2017-09-17T14:16:32.260Z,56.90
2017-09-17T14:19:00.163Z,56.90
2017-09-17T14:21:27.754Z,58.10
2017-09-17T14:23:55.343Z,58.50
2017-09-17T14:26:22.932Z,58.00
2017-09-17T14:28:50.527Z,58.40
2017-09-17T14:31:18.136Z,59.10
2017-09-17T14:33:45.786Z,59.60
2017-09-17T14:36:14.135Z,60.40
2017-09-17T14:38:41.733Z,60.40
2017-09-17T14:41:09.323Z,59.20
2017-09-17T14:43:36.940Z,59.20
2017-09-17T14:46:04.896Z,57.40
2017-09-17T14:48:33.233Z,48.90
2017-09-17T14:51:00.855Z,48.80
2017-09-17T14:53:28.638Z,47.80
2017-09-17T14:55:56.235Z,48.90
2017-09-17T14:58:23.867Z,50.30
2017-09-17T15:00:51.508Z,51.80
2017-09-17T15:03:19.160Z,52.60
2017-09-17T15:05:46.763Z,52.30
2017-09-17T15:08:14.406Z,53.70
2017-09-17T15:10:42.803Z,54.10
2017-09-17T15:13:11.558Z,53.30
2017-09-17T15:15:39.176Z,53.30
2017-09-17T15:18:06.771Z,52.90
2017-09-17T15:20:34.377Z,49.20
2017-09-17T15:23:01.984Z,46.00
2017-09-17T15:25:29.582Z,42.30
2017-09-17T15:27:57.177Z,40.10
2017-09-17T15:30:25.580Z,36.40
2017-09-17T15:32:53.163Z,36.40
2017-09-17T15:35:20.761Z,35.80
2017-09-17T15:37:48.353Z,34.90
2017-09-17T15:40:18.125Z,33.20
2017-09-17T15:42:45.768Z,33.00
2017-09-17T15:45:13.411Z,33.00
2017-09-17T15:47:41.050Z,31.60
2017-09-17T15:50:08.649Z,31.10
2017-09-17T15:52:36.251Z,31.60
2017-09-17T15:55:04.625Z,32.20
2017-09-17T15:57:32.998Z,31.90
2017-09-17T16:00:01.417Z,31.10
2017-09-17T16:02:29.293Z,31.00
2017-09-17T16:04:56.883Z,31.10
2017-09-17T16:07:24.474Z,31.00
2017-09-17T16:09:52.896Z,32.10
2017-09-17T16:12:20.528Z,32.00
2017-09-17T16:14:48.118Z,32.40
2017-09-17T16:17:16.496Z,37.60
2017-09-17T16:19:44.376Z,37.60
2017-09-17T16:22:12.745Z,40.60
2017-09-17T16:24:40.326Z,40.80
2017-09-17T16:27:08.760Z,44.20
2017-09-17T16:29:36.347Z,44.00
2017-09-17T16:32:03.941Z,46.10
2017-09-17T16:34:32.298Z,49.80
2017-09-17T16:36:59.925Z,49.70
2017-09-17T16:39:27.498Z,51.90
2017-09-17T16:41:55.102Z,53.50
2017-09-17T16:44:23.490Z,55.10
2017-09-17T16:46:52.108Z,55.70
2017-09-17T16:49:19.664Z,55.60
2017-09-17T16:51:47.222Z,56.40
2017-09-17T16:54:14.871Z,56.90
2017-09-17T16:56:42.473Z,57.30
2017-09-17T16:59:10.052Z,57.80
2017-09-17T17:01:38.391Z,58.50
2017-09-17T17:04:05.974Z,58.50
2017-09-17T17:06:33.540Z,59.90
2017-09-17T17:09:01.490Z,61.00
2017-09-17T17:11:29.052Z,62.70
2017-09-17T17:13:56.658Z,64.40
2017-09-17T17:16:24.261Z,66.00
2017-09-17T17:18:52.609Z,67.70
2017-09-17T17:21:20.200Z,67.80
2017-09-17T17:23:48.579Z,69.70
2017-09-17T17:26:16.179Z,69.70
2017-09-17T17:28:44.519Z,72.10
2017-09-17T17:31:12.391Z,72.00
2017-09-17T17:33:39.994Z,73.50
2017-09-17T17:36:07.622Z,73.50
2017-09-17T17:38:35.226Z,74.40
2017-09-17T17:41:02.833Z,74.90
2017-09-17T17:43:30.496Z,75.90
2017-09-17T17:45:58.186Z,76.30
2017-09-17T17:48:26.881Z,78.20
2017-09-17T17:50:54.476Z,78.20
2017-09-17T17:53:22.078Z,78.90
2017-09-17T17:55:50.496Z,80.00
2017-09-17T17:58:18.081Z,80.10
2017-09-17T18:00:45.688Z,80.60
2017-09-17T18:03:13.266Z,81.10
2017-09-17T18:05:40.854Z,81.50
2017-09-17T18:08:08.443Z,82.20
2017-09-17T18:10:36.316Z,82.90
2017-09-17T18:13:03.876Z,83.20
2017-09-17T18:15:31.464Z,83.50
2017-09-17T18:17:59.286Z,83.80
2017-09-17T18:20:26.962Z,84.30
2017-09-17T18:22:55.494Z,85.00
2017-09-17T18:25:23.062Z,85.00
2017-09-17T18:27:50.654Z,85.70
2017-09-17T18:30:18.268Z,86.10
2017-09-17T18:32:45.848Z,86.70
2017-09-17T18:35:13.447Z,86.50
2017-09-17T18:37:42.095Z,87.30
2017-09-17T18:40:09.835Z,87.30
2017-09-17T18:42:37.443Z,87.70
2017-09-17T18:45:05.170Z,88.10
2017-09-17T18:47:32.748Z,88.50
2017-09-17T18:50:00.347Z,88.80
2017-09-17T18:52:28.684Z,89.50
2017-09-17T18:54:56.296Z,89.50
2017-09-17T18:57:23.861Z,90.00
2017-09-17T18:59:51.473Z,90.00
2017-09-17T19:02:19.075Z,90.10
2017-09-17T19:04:47.011Z,90.70
2017-09-17T19:07:14.598Z,90.40
2017-09-17T19:09:42.262Z,90.50
2017-09-17T19:12:09.877Z,90.60
2017-09-17T19:14:37.463Z,90.60
2017-09-17T19:17:05.863Z,90.80
2017-09-17T19:19:33.442Z,90.80
2017-09-17T19:22:01.017Z,91.00
2017-09-17T19:24:28.655Z,91.20
2017-09-17T19:26:56.581Z,91.10
2017-09-17T19:29:24.915Z,91.50
2017-09-17T19:31:52.501Z,91.50
2017-09-17T19:34:20.323Z,91.70
2017-09-17T19:36:47.907Z,91.50
2017-09-17T19:39:15.501Z,91.50
2017-09-17T19:41:43.837Z,91.50
2017-09-17T19:44:11.435Z,91.50
2017-09-17T19:46:41.231Z,91.70
2017-09-17T19:49:08.864Z,91.70
2017-09-17T19:51:36.454Z,91.80
2017-09-17T19:54:04.077Z,91.80
2017-09-17T19:56:31.647Z,92.00
2017-09-17T19:58:59.807Z,92.30
2017-09-17T20:01:27.568Z,92.50
2017-09-17T20:03:55.154Z,92.50
2017-09-17T20:06:22.768Z,92.60
2017-09-17T20:08:50.945Z,92.80
2017-09-17T20:11:18.564Z,92.80
2017-09-17T20:13:46.145Z,92.60
2017-09-17T20:16:14.545Z,92.40
2017-09-17T20:18:42.145Z,92.40
2017-09-17T20:21:10.100Z,92.30
2017-09-17T20:23:39.101Z,92.10
2017-09-17T20:26:06.673Z,92.10
2017-09-17T20:28:34.273Z,92.10
2017-09-17T20:31:01.873Z,92.30
2017-09-17T20:33:30.376Z,92.30
2017-09-17T20:35:57.992Z,92.30
2017-09-17T20:38:25.582Z,92.80
2017-09-17T20:40:53.155Z,92.50
2017-09-17T20:43:20.900Z,92.40
2017-09-17T20:45:48.469Z,92.50
2017-09-17T20:48:16.427Z,92.80
2017-09-17T20:50:44.016Z,92.90
2017-09-17T20:53:12.446Z,92.90
2017-09-17T20:55:40.537Z,92.80
2017-09-17T20:58:08.129Z,93.00
2017-09-17T21:00:36.489Z,93.10
2017-09-17T21:03:04.071Z,93.10
2017-09-17T21:05:33.003Z,93.10
2017-09-17T21:08:00.593Z,93.10
2017-09-17T21:10:28.183Z,93.20
2017-09-17T21:12:56.653Z,93.30
2017-09-17T21:15:24.999Z,93.40
2017-09-17T21:17:52.942Z,93.30
2017-09-17T21:20:20.546Z,93.40
2017-09-17T21:22:48.123Z,93.50
2017-09-17T21:25:16.482Z,94.00
2017-09-17T21:27:44.058Z,93.50
2017-09-17T21:30:12.500Z,94.10
2017-09-17T21:32:40.546Z,94.10
2017-09-17T21:35:08.119Z,94.20
2017-09-17T21:37:35.676Z,94.20
2017-09-17T21:40:03.389Z,94.30
2017-09-17T21:42:31.024Z,94.40
2017-09-17T21:44:58.809Z,94.60
2017-09-17T21:47:26.421Z,94.80
2017-09-17T21:49:54.340Z,94.90
2017-09-17T21:52:22.812Z,94.90
2017-09-17T21:54:51.175Z,95.00
2017-09-17T21:57:19.101Z,95.00
2017-09-17T21:59:46.696Z,95.10
2017-09-17T22:02:14.265Z,95.20
2017-09-17T22:04:41.831Z,95.30
2017-09-17T22:07:10.187Z,95.50
2017-09-17T22:09:37.746Z,95.50
2017-09-17T22:12:05.691Z,95.60
2017-09-17T22:14:33.263Z,96.10
2017-09-17T22:17:00.820Z,96.50
2017-09-17T22:19:28.405Z,96.60
2017-09-17T22:21:55.972Z,96.50
2017-09-17T22:24:23.563Z,96.70
2017-09-17T22:26:51.118Z,96.90
2017-09-17T22:29:19.011Z,96.80
2017-09-17T22:31:46.711Z,97.00
2017-09-17T22:34:14.349Z,97.10
2017-09-17T22:36:41.943Z,97.00
2017-09-17T22:39:10.273Z,96.90
2017-09-17T22:41:37.845Z,96.90
2017-09-17T22:44:05.431Z,96.90
2017-09-17T22:46:32.997Z,97.00
2017-09-17T22:49:01.337Z,97.10
2017-09-17T22:51:29.492Z,97.10
2017-09-17T22:53:57.067Z,97.10
2017-09-17T22:56:24.629Z,97.00
2017-09-17T22:58:52.201Z,96.80
2017-09-17T23:01:19.778Z,97.00
2017-09-17T23:03:48.117Z,97.20
2017-09-17T23:06:15.689Z,97.20
2017-09-17T23:08:43.346Z,97.20
2017-09-17T23:11:10.938Z,97.30
2017-09-17T23:13:39.371Z,97.60
2017-09-17T23:16:06.934Z,97.60
2017-09-17T23:18:34.493Z,97.60
2017-09-17T23:21:02.096Z,97.70
2017-09-17T23:23:30.443Z,97.60
2017-09-17T23:25:58.015Z,97.50
2017-09-17T23:28:25.579Z,97.70
2017-09-17T23:30:53.159Z,97.60
2017-09-17T23:33:21.576Z,97.30
2017-09-17T23:35:49.143Z,97.30
2017-09-17T23:38:16.707Z,97.20
2017-09-17T23:40:44.651Z,97.10
2017-09-17T23:43:12.237Z,97.10
2017-09-17T23:45:39.896Z,97.30
2017-09-17T23:48:07.549Z,97.20
2017-09-17T23:50:35.124Z,97.10
2017-09-17T23:53:02.688Z,97.00
2017-09-17T23:55:30.251Z,97.00
2017-09-17T23:57:57.812Z,96.90
